Map

Track Data

SID SEASON NUMBER BASIN SUBBASIN NAME ISO_TIME NATURE LAT LON WMO_WIND WMO_PRES WMO_AGENCY TRACK_TYPE DIST2LAND LANDFALL IFLAG USA_AGENCY USA_ATCF_ID USA_LAT USA_LON USA_RECORD USA_STATUS USA_WIND USA_PRES USA_SSHS USA_R34_NE USA_R34_SE USA_R34_SW USA_R34_NW USA_R50_NE USA_R50_SE USA_R50_SW USA_R50_NW USA_R64_NE USA_R64_SE USA_R64_SW USA_R64_NW USA_POCI USA_ROCI USA_RMW USA_EYE TOKYO_LAT TOKYO_LON TOKYO_GRADE TOKYO_WIND TOKYO_PRES TOKYO_R50_DIR TOKYO_R50_LONG TOKYO_R50_SHORT TOKYO_R30_DIR TOKYO_R30_LONG TOKYO_R30_SHORT TOKYO_LAND CMA_LAT CMA_LON CMA_CAT CMA_WIND CMA_PRES HKO_LAT HKO_LON HKO_CAT HKO_WIND HKO_PRES NEWDELHI_LAT NEWDELHI_LON NEWDELHI_GRADE NEWDELHI_WIND NEWDELHI_PRES NEWDELHI_CI NEWDELHI_DP NEWDELHI_POCI REUNION_LAT REUNION_LON REUNION_TYPE REUNION_WIND REUNION_PRES REUNION_TNUM REUNION_CI REUNION_RMW REUNION_R34_NE REUNION_R34_SE REUNION_R34_SW REUNION_R34_NW REUNION_R50_NE REUNION_R50_SE REUNION_R50_SW REUNION_R50_NW REUNION_R64_NE REUNION_R64_SE REUNION_R64_SW REUNION_R64_NW BOM_LAT BOM_LON BOM_TYPE BOM_WIND BOM_PRES BOM_TNUM BOM_CI BOM_RMW BOM_R34_NE BOM_R34_SE BOM_R34_SW BOM_R34_NW BOM_R50_NE BOM_R50_SE BOM_R50_SW BOM_R50_NW BOM_R64_NE BOM_R64_SE BOM_R64_SW BOM_R64_NW BOM_ROCI BOM_POCI BOM_EYE BOM_POS_METHOD BOM_PRES_METHOD NADI_LAT NADI_LON NADI_CAT NADI_WIND NADI_PRES WELLINGTON_LAT WELLINGTON_LON WELLINGTON_WIND WELLINGTON_PRES DS824_LAT DS824_LON DS824_STAGE DS824_WIND DS824_PRES TD9636_LAT TD9636_LON TD9636_STAGE TD9636_WIND TD9636_PRES TD9635_LAT TD9635_LON TD9635_WIND TD9635_PRES TD9635_ROCI NEUMANN_LAT NEUMANN_LON NEUMANN_CLASS NEUMANN_WIND NEUMANN_PRES MLC_LAT MLC_LON MLC_CLASS MLC_WIND MLC_PRES USA_GUST BOM_GUST BOM_GUST_PER REUNION_GUST REUNION_GUST_PER USA_SEAHGT USA_SEARAD_NE USA_SEARAD_SE USA_SEARAD_SW USA_SEARAD_NW STORM_SPEED STORM_DIR
1947290N19297 1947 84 NA NA NOT_NAMED 1947-10-17 00:00:00 TS 19.0000 -63.2000 35 hurdat_atl main 261 200 O_____________ hurdat_atl AL101947 19.0000 -63.2000 TS 35 0 15 290
1947290N19297 1947 84 NA NA NOT_NAMED 1947-10-17 03:00:00 TS 19.2555 -63.9445 main 205 155 P_____________ AL101947 19.2555 -63.9445 TS 37 0 15 289
1947290N19297 1947 84 NA NA NOT_NAMED 1947-10-17 06:00:00 TS 19.5000 -64.7000 40 hurdat_atl main 155 140 O_____________ hurdat_atl AL101947 19.5000 -64.7000 TS 40 0 15 288
1947290N19297 1947 84 NA NA NOT_NAMED 1947-10-17 09:00:00 TS 19.7349 -65.4653 main 145 145 P_____________ AL101947 19.7349 -65.4653 TS 42 0 15 290
1947290N19297 1947 84 NA NA NOT_NAMED 1947-10-17 12:00:00 TS 20.0000 -66.2000 45 1000 hurdat_atl main 178 178 O_____________ hurdat_atl AL101947 20.0000 -66.2000 TS 45 1000 0 15 294
1947290N19297 1947 84 NA NA NOT_NAMED 1947-10-17 15:00:00 TS 20.3347 -66.8726 main 212 212 P_____________ AL101947 20.3347 -66.8726 TS 47 0 14 300
1947290N19297 1947 84 NA NA NOT_NAMED 1947-10-17 18:00:00 TS 20.7000 -67.5000 50 hurdat_atl main 241 227 O_____________ hurdat_atl AL101947 20.7000 -67.5000 TS 50 0 14 301
1947290N19297 1947 84 NA NA NOT_NAMED 1947-10-17 21:00:00 TS 21.0499 -68.1302 main 227 226 P_____________ AL101947 21.0499 -68.1302 TS 55 0 13 302
1947290N19297 1947 84 NA NA NOT_NAMED 1947-10-18 00:00:00 TS 21.4000 -68.7000 60 hurdat_atl main 242 236 O_____________ hurdat_atl AL101947 21.4000 -68.7000 TS 60 0 12 305
1947290N19297 1947 84 NA NA NOT_NAMED 1947-10-18 03:00:00 TS 21.7498 -69.1952 main 249 249 P_____________ AL101947 21.7498 -69.1952 TS 62 0 11 310
1947290N19297 1947 84 NA NA NOT_NAMED 1947-10-18 06:00:00 TS 22.1000 -69.6000 65 hurdat_atl main 277 277 O_____________ hurdat_atl AL101947 22.1000 -69.6000 HU 65 1 10 314
1947290N19297 1947 84 NA NA NOT_NAMED 1947-10-18 09:00:00 TS 22.4349 -69.9526 main 297 297 P_____________ AL101947 22.4349 -69.9526 HU 67 1 9 322
1947290N19297 1947 84 NA NA NOT_NAMED 1947-10-18 12:00:00 TS 22.8000 -70.2000 70 990 hurdat_atl main 338 336 O_____________ hurdat_atl AL101947 22.8000 -70.2000 HU 70 990 1 9 336
1947290N19297 1947 84 NA NA NOT_NAMED 1947-10-18 15:00:00 TS 23.2274 -70.3377 main 356 355 P_____________ AL101947 23.2274 -70.3377 HU 75 985 1 9 348
1947290N19297 1947 84 NA NA NOT_NAMED 1947-10-18 18:00:00 TS 23.7000 -70.4000 80 981 hurdat_atl main 386 386 O_____________ hurdat_atl AL101947 23.7000 -70.4000 HU 80 981 1 10 352
1947290N19297 1947 84 NA NA NOT_NAMED 1947-10-18 21:00:00 TS 24.1775 -70.4872 main 422 422 P_____________ AL101947 24.1775 -70.4872 HU 82 1 10 355
1947290N19297 1947 84 NA NA NOT_NAMED 1947-10-19 00:00:00 TS 24.7000 -70.5000 85 hurdat_atl main 467 467 O_____________ hurdat_atl AL101947 24.7000 -70.5000 HU 85 2 11 5
1947290N19297 1947 84 NA NA NOT_NAMED 1947-10-19 03:00:00 TS 25.2700 -70.3802 main 529 529 P_____________ AL101947 25.2700 -70.3802 HU 87 2 12 13
1947290N19297 1947 84 NA NA NOT_NAMED 1947-10-19 06:00:00 TS 25.9000 -70.2000 90 hurdat_atl main 597 597 O_____________ hurdat_atl AL101947 25.9000 -70.2000 HU 90 2 14 12
1947290N19297 1947 84 NA NA NOT_NAMED 1947-10-19 09:00:00 TS 26.5924 -70.0794 main 671 671 P_____________ AL101947 26.5924 -70.0794 HU 95 2 14 11
1947290N19297 1947 84 NA NA NOT_NAMED 1947-10-19 12:00:00 TS 27.3000 -69.9000 100 hurdat_atl main 750 750 O_____________ hurdat_atl AL101947 27.3000 -69.9000 HU 100 3 14 17
1947290N19297 1947 84 NA NA NOT_NAMED 1947-10-19 15:00:00 TS 27.9573 -69.6095 main 833 833 P_____________ AL101947 27.9573 -69.6095 HU 102 3 14 25
1947290N19297 1947 84 NA NA NOT_NAMED 1947-10-19 18:00:00 TS 28.6000 -69.2000 105 hurdat_atl main 911 911 O_____________ hurdat_atl AL101947 28.6000 -69.2000 HU 105 3 15 32
1947290N19297 1947 84 NA NA NOT_NAMED 1947-10-19 21:00:00 TS 29.2425 -68.6871 main 956 947 P_____________ AL101947 29.2425 -68.6871 HU 105 3 16 36
1947290N19297 1947 84 NA NA NOT_NAMED 1947-10-20 00:00:00 TS 29.9000 -68.1000 105 hurdat_atl main 948 941 O_____________ hurdat_atl AL101947 29.9000 -68.1000 HU 105 3 17 37
1947290N19297 1947 84 NA NA NOT_NAMED 1947-10-20 03:00:00 TS 30.5923 -67.5069 main 941 935 P_____________ AL101947 30.5923 -67.5069 HU 105 3 17 36
1947290N19297 1947 84 NA NA NOT_NAMED 1947-10-20 06:00:00 TS 31.3000 -66.9000 105 hurdat_atl main 939 935 O_____________ hurdat_atl AL101947 31.3000 -66.9000 HU 105 3 18 37
1947290N19297 1947 84 NA NA NOT_NAMED 1947-10-20 09:00:00 TS 32.0302 -66.2556 main 946 946 P_____________ AL101947 32.0302 -66.2556 HU 102 3 17 36
1947290N19297 1947 84 NA NA NOT_NAMED 1947-10-20 12:00:00 TS 32.7000 -65.7000 100 hurdat_atl main 962 957 O_____________ hurdat_atl AL101947 32.7000 -65.7000 HU 100 3 14 31
1947290N19297 1947 84 NA NA NOT_NAMED 1947-10-20 15:00:00 TS 33.2216 -65.3901 main 967 963 P_____________ AL101947 33.2216 -65.3901 HU 100 3 11 27
1947290N19297 1947 84 NA NA NOT_NAMED 1947-10-20 18:00:00 TS 33.7000 -65.1000 100 961 hurdat_atl main 976 950 O_____________ hurdat_atl AL101947 33.7000 -65.1000 HU 100 961 3 12 30
1947290N19297 1947 84 NA NA NOT_NAMED 1947-10-20 21:00:00 TS 34.2255 -64.6971 main 954 923 P_____________ AL101947 34.2255 -64.6971 HU 97 3 14 40
1947290N19297 1947 84 NA NA NOT_NAMED 1947-10-21 00:00:00 TS 34.8000 -64.0000 95 hurdat_atl main 928 924 O_____________ hurdat_atl AL101947 34.8000 -64.0000 HU 95 2 20 52
1947290N19297 1947 84 NA NA NOT_NAMED 1947-10-21 03:00:00 TS 35.4295 -62.7983 main 926 884 P_____________ AL101947 35.4295 -62.7983 HU 92 2 25 58
1947290N19297 1947 84 NA NA NOT_NAMED 1947-10-21 06:00:00 TS 36.1000 -61.4000 90 hurdat_atl main 887 861 O_____________ hurdat_atl AL101947 36.1000 -61.4000 HU 90 2 25 56
1947290N19297 1947 84 NA NA NOT_NAMED 1947-10-21 09:00:00 TS 36.8283 -60.1846 main 861 846 P_____________ AL101947 36.8283 -60.1846 HU 87 2 24 54
1947290N19297 1947 84 NA NA NOT_NAMED 1947-10-21 12:00:00 TS 37.5000 -59.0000 85 hurdat_atl main 852 838 O_____________ hurdat_atl AL101947 37.5000 -59.0000 HU 85 2 21 56
1947290N19297 1947 84 NA NA NOT_NAMED 1947-10-21 15:00:00 TS 38.0021 -57.9601 main 840 832 P_____________ AL101947 38.0021 -57.9601 HU 85 2 21 65
1947290N19297 1947 84 NA NA NOT_NAMED 1947-10-21 18:00:00 TS 38.4000 -56.6000 85 hurdat_atl main 842 842 O_____________ hurdat_atl AL101947 38.4000 -56.6000 HU 85 2 28 75
1947290N19297 1947 84 NA NA NOT_NAMED 1947-10-21 21:00:00 TS 38.7318 -54.4931 main 881 847 P_____________ AL101947 38.7318 -54.4931 HU 82 1 36 81
1947290N19297 1947 84 NA NA NOT_NAMED 1947-10-22 00:00:00 TS 39.0000 -52.0000 80 hurdat_atl main 850 846 O_____________ hurdat_atl AL101947 39.0000 -52.0000 HU 80 1 39 82
1947290N19297 1947 84 NA NA NOT_NAMED 1947-10-22 03:00:00 TS 39.2598 -49.4894 main 865 865 P_____________ AL101947 39.2598 -49.4894 HU 72 1 39 83
1947290N19297 1947 84 NA NA NOT_NAMED 1947-10-22 06:00:00 ET 39.5000 -47.0000 65 hurdat_atl main 934 O_____________ hurdat_atl AL101947 39.5000 -47.0000 EX 65 -4 39 83

About IBTrACS Database

This database is a web-friendly format of International Best Track Archive for Climate Stewardship (IBTrACS), a global best track data archive curated by NOAA dating back to 1842.

Updated: 2021-12-03